createdAt,value
2022-09-27T00:01:52.175Z,37.20
2022-09-27T00:04:19.096Z,46.05
2022-09-27T00:06:45.789Z,49.23
2022-09-27T00:09:12.565Z,54.30
2022-09-27T00:11:42.678Z,77.30
2022-09-27T00:14:12.306Z,34.42
2022-09-27T00:16:40.958Z,30.60
2022-09-27T00:19:13.892Z,33.63
2022-09-27T00:21:41.120Z,49.83
2022-09-27T00:24:12.734Z,86.70
2022-09-27T00:26:39.975Z,83.47
2022-09-27T00:29:07.410Z,72.93
2022-09-27T00:31:34.382Z,58.30
2022-09-27T00:34:03.324Z,48.15
2022-09-27T00:36:31.253Z,50.15
2022-09-27T00:39:01.535Z,32.83
2022-09-27T00:41:33.237Z,27.75
2022-09-27T00:44:04.325Z,38.10
2022-09-27T00:46:49.653Z,59.72
2022-09-27T00:49:25.097Z,61.28
2022-09-27T00:52:04.018Z,34.13
2022-09-27T00:54:34.795Z,38.95
2022-09-27T00:57:03.019Z,18.20
2022-09-27T00:59:35.438Z,36.95
2022-09-27T01:02:05.185Z,46.88
2022-09-27T01:04:32.380Z,22.25
2022-09-27T01:06:59.903Z,14.73
2022-09-27T01:09:27.809Z,15.50
2022-09-27T01:12:25.499Z,15.65
2022-09-27T01:15:28.752Z,14.35
2022-09-27T01:18:37.822Z,12.40
2022-09-27T01:21:32.796Z,8.85
2022-09-27T01:24:23.846Z,9.40
2022-09-27T01:27:25.814Z,5.68
2022-09-27T01:30:15.454Z,6.13
2022-09-27T01:33:07.575Z,6.03
2022-09-27T01:35:57.029Z,8.50
2022-09-27T01:38:26.944Z,9.17
2022-09-27T01:41:04.477Z,5.40
2022-09-27T01:43:52.702Z,5.43
2022-09-27T01:46:33.840Z,7.25
2022-09-27T01:49:33.978Z,8.65
2022-09-27T01:52:04.317Z,6.90
2022-09-27T01:54:39.159Z,11.13
2022-09-27T01:57:26.489Z,10.00
2022-09-27T01:59:59.875Z,9.13
2022-09-27T02:03:00.746Z,8.13
2022-09-27T02:05:37.889Z,6.97
2022-09-27T02:08:36.397Z,8.32
2022-09-27T02:11:13.745Z,12.70
2022-09-27T02:13:58.165Z,23.40
2022-09-27T02:16:53.126Z,22.80
2022-09-27T02:19:35.934Z,106.80
2022-09-27T02:22:25.052Z,92.32
2022-09-27T02:24:58.925Z,34.60
2022-09-27T02:27:32.421Z,12.52
2022-09-27T02:30:07.366Z,45.05
2022-09-27T02:32:36.300Z,13.97
2022-09-27T02:35:18.534Z,6.60
2022-09-27T02:37:47.052Z,11.48
2022-09-27T02:40:14.256Z,7.15
2022-09-27T02:42:42.595Z,6.03
2022-09-27T02:45:10.873Z,8.27
2022-09-27T02:47:59.371Z,4.15
2022-09-27T02:50:49.168Z,4.45
2022-09-27T02:54:04.740Z,3.60
2022-09-27T02:57:18.959Z,5.90
2022-09-27T03:00:14.484Z,5.10
2022-09-27T03:03:15.073Z,6.22
2022-09-27T03:06:10.373Z,5.53
2022-09-27T03:08:38.876Z,5.70
2022-09-27T03:11:06.766Z,4.82
2022-09-27T03:13:45.800Z,3.30
2022-09-27T03:16:22.126Z,6.78
2022-09-27T03:19:09.920Z,4.93
2022-09-27T03:21:55.220Z,5.00
2022-09-27T03:24:21.907Z,5.32
2022-09-27T03:26:51.009Z,3.57
2022-09-27T03:29:18.307Z,4.03
2022-09-27T03:31:51.024Z,6.45
2022-09-27T03:34:29.844Z,5.28
2022-09-27T03:36:56.713Z,4.57
2022-09-27T03:39:23.601Z,4.27
2022-09-27T03:41:50.552Z,4.43
2022-09-27T03:44:17.525Z,4.68
2022-09-27T03:46:44.402Z,3.72
2022-09-27T03:49:11.302Z,4.13
2022-09-27T03:51:38.199Z,3.40
2022-09-27T03:54:04.972Z,5.18
2022-09-27T03:56:31.842Z,5.55
2022-09-27T03:58:59.057Z,7.20
2022-09-27T04:01:27.808Z,6.00
2022-09-27T04:04:10.885Z,6.40
2022-09-27T04:06:38.649Z,8.75
2022-09-27T04:09:05.395Z,6.57
2022-09-27T04:11:51.084Z,7.82
2022-09-27T04:14:17.736Z,13.40
2022-09-27T04:17:04.758Z,10.90
2022-09-27T04:19:47.732Z,20.25
2022-09-27T04:22:15.445Z,13.43
2022-09-27T04:24:43.477Z,17.05
2022-09-27T04:27:30.581Z,19.25
2022-09-27T04:29:57.924Z,50.63
2022-09-27T04:32:44.631Z,80.00
2022-09-27T04:35:56.187Z,42.65
2022-09-27T04:38:24.106Z,46.38
2022-09-27T04:40:51.600Z,53.83
2022-09-27T04:43:18.769Z,42.60
2022-09-27T04:45:46.480Z,28.67
2022-09-27T04:48:13.254Z,35.13
2022-09-27T04:50:41.223Z,37.42
2022-09-27T04:53:08.591Z,27.63
2022-09-27T04:55:35.264Z,25.47
2022-09-27T04:58:01.976Z,41.47
2022-09-27T05:00:29.486Z,31.10
2022-09-27T05:03:03.528Z,52.88
2022-09-27T05:05:53.861Z,32.38
2022-09-27T05:08:21.151Z,36.83
2022-09-27T05:11:07.932Z,22.15
2022-09-27T05:13:35.569Z,13.13
2022-09-27T05:16:05.585Z,7.70
2022-09-27T05:18:51.171Z,6.72
2022-09-27T05:21:44.200Z,5.13
2022-09-27T05:24:11.303Z,6.03
2022-09-27T05:26:38.135Z,5.75
2022-09-27T05:29:04.958Z,8.25
2022-09-27T05:31:32.088Z,4.53
2022-09-27T05:33:59.015Z,4.47
2022-09-27T05:36:33.458Z,6.07
2022-09-27T05:39:00.727Z,6.63
2022-09-27T05:41:27.761Z,10.25
2022-09-27T05:43:55.690Z,10.00
2022-09-27T05:46:22.408Z,6.90
2022-09-27T05:48:49.189Z,9.25
2022-09-27T05:51:16.239Z,6.53
2022-09-27T05:53:42.906Z,4.35
2022-09-27T05:56:20.794Z,17.15
2022-09-27T05:59:07.828Z,18.93
2022-09-27T06:01:55.253Z,26.42
2022-09-27T06:04:44.658Z,15.88
2022-09-27T06:07:32.267Z,12.52
2022-09-27T06:10:00.570Z,12.98
2022-09-27T06:12:27.383Z,12.33
2022-09-27T06:14:54.567Z,5.20
2022-09-27T06:17:37.744Z,9.65
2022-09-27T06:20:13.206Z,5.05
2022-09-27T06:22:41.129Z,4.60
2022-09-27T06:25:09.707Z,6.87
2022-09-27T06:27:49.055Z,4.40
2022-09-27T06:30:23.096Z,3.42
2022-09-27T06:32:58.875Z,4.25
2022-09-27T06:35:31.611Z,2.78
2022-09-27T06:37:58.722Z,3.90
2022-09-27T06:40:27.385Z,2.90
2022-09-27T06:43:10.299Z,3.72
2022-09-27T06:45:54.964Z,4.28
2022-09-27T06:48:48.145Z,5.15
2022-09-27T06:51:16.249Z,5.53
2022-09-27T06:53:43.726Z,4.10
2022-09-27T06:56:10.906Z,4.53
2022-09-27T06:59:11.799Z,3.63
2022-09-27T07:01:45.530Z,3.45
2022-09-27T07:04:30.982Z,4.07
2022-09-27T07:06:57.938Z,3.85
2022-09-27T07:09:28.274Z,4.05
2022-09-27T07:11:55.461Z,4.55
2022-09-27T07:14:22.464Z,5.45
2022-09-27T07:16:50.094Z,6.43
2022-09-27T07:19:18.396Z,4.47
2022-09-27T07:21:46.567Z,3.72
2022-09-27T07:24:13.356Z,5.68
2022-09-27T07:26:41.496Z,4.55
2022-09-27T07:29:11.047Z,9.93
2022-09-27T07:31:38.405Z,6.85
2022-09-27T07:34:06.001Z,7.70
2022-09-27T07:36:33.460Z,6.78
2022-09-27T07:39:00.689Z,4.85
2022-09-27T07:41:27.761Z,5.90
2022-09-27T07:43:54.801Z,3.95
2022-09-27T07:46:23.771Z,5.60
2022-09-27T07:49:17.339Z,4.72
2022-09-27T07:51:49.856Z,5.68
2022-09-27T07:54:52.355Z,4.53
2022-09-27T07:57:34.640Z,3.30
2022-09-27T08:00:05.593Z,6.03
2022-09-27T08:02:40.406Z,4.25
2022-09-27T08:05:08.865Z,3.88
2022-09-27T08:07:35.780Z,3.17
2022-09-27T08:10:03.633Z,3.53
2022-09-27T08:12:31.203Z,3.15
2022-09-27T08:15:01.376Z,6.20
2022-09-27T08:17:29.006Z,4.72
2022-09-27T08:20:06.855Z,3.53
2022-09-27T08:22:53.740Z,2.92
2022-09-27T08:25:28.408Z,4.63
2022-09-27T08:28:04.690Z,5.50
2022-09-27T08:30:38.377Z,5.18
2022-09-27T08:33:06.815Z,4.73
2022-09-27T08:35:34.081Z,5.43
2022-09-27T08:38:03.184Z,6.88
2022-09-27T08:40:54.757Z,8.48
2022-09-27T08:43:26.931Z,5.43
2022-09-27T08:46:12.462Z,6.10
2022-09-27T08:48:40.152Z,8.48
2022-09-27T08:51:11.706Z,7.57
2022-09-27T08:53:47.000Z,7.05
2022-09-27T08:56:15.768Z,5.50
2022-09-27T08:58:55.960Z,4.63
2022-09-27T09:01:31.266Z,4.25
2022-09-27T09:04:09.074Z,4.88
2022-09-27T09:07:01.919Z,6.10
2022-09-27T09:09:53.560Z,4.22
2022-09-27T09:13:00.420Z,4.20
2022-09-27T09:15:55.065Z,4.50
2022-09-27T09:18:49.913Z,7.80
2022-09-27T09:21:35.107Z,6.25
2022-09-27T09:24:33.784Z,7.10
2022-09-27T09:27:18.909Z,7.68
2022-09-27T09:30:05.514Z,6.80
2022-09-27T09:33:01.938Z,11.85
2022-09-27T09:35:40.859Z,13.00
2022-09-27T09:38:17.173Z,13.32
2022-09-27T09:40:48.902Z,9.70
2022-09-27T09:43:28.649Z,6.53
2022-09-27T09:46:22.015Z,14.25
2022-09-27T09:48:56.141Z,14.70
2022-09-27T09:51:35.108Z,12.23
2022-09-27T09:54:27.641Z,8.00
2022-09-27T09:57:27.706Z,6.37
2022-09-27T10:00:16.171Z,9.25
2022-09-27T10:02:44.980Z,6.20
2022-09-27T10:05:19.630Z,4.78
2022-09-27T10:07:51.464Z,3.53
2022-09-27T10:10:20.490Z,4.50
2022-09-27T10:12:53.735Z,4.07
2022-09-27T10:15:28.731Z,3.83
2022-09-27T10:17:58.593Z,4.25
2022-09-27T10:20:44.015Z,3.13
2022-09-27T10:23:19.584Z,3.80
2022-09-27T10:26:10.807Z,3.72
2022-09-27T10:28:46.086Z,3.78
2022-09-27T10:31:18.127Z,3.45
2022-09-27T10:34:05.597Z,4.85
2022-09-27T10:36:42.136Z,5.27
2022-09-27T10:39:22.727Z,6.18
2022-09-27T10:41:51.004Z,4.30
2022-09-27T10:44:31.992Z,3.92
2022-09-27T10:47:11.818Z,3.45
2022-09-27T10:49:45.097Z,4.23
2022-09-27T10:52:36.059Z,4.13
2022-09-27T10:55:16.421Z,4.53
2022-09-27T10:57:49.963Z,3.72
2022-09-27T11:00:23.612Z,4.07
2022-09-27T11:02:54.959Z,4.97
2022-09-27T11:05:29.619Z,4.07
2022-09-27T11:07:57.853Z,2.65
2022-09-27T11:10:41.258Z,3.75
2022-09-27T11:13:19.910Z,3.58
2022-09-27T11:16:13.092Z,4.17
2022-09-27T11:19:15.623Z,4.55
2022-09-27T11:21:45.442Z,4.47
2022-09-27T11:24:28.598Z,4.95
2022-09-27T11:27:15.917Z,5.18
2022-09-27T11:29:51.951Z,9.37
2022-09-27T11:33:18.465Z,8.18
2022-09-27T11:36:01.229Z,5.95
2022-09-27T11:39:12.826Z,4.45
2022-09-27T11:42:01.233Z,5.43
2022-09-27T11:44:40.639Z,5.70
2022-09-27T11:47:25.790Z,6.88
2022-09-27T11:50:30.695Z,9.70
2022-09-27T11:53:09.521Z,5.53
2022-09-27T11:56:04.798Z,5.32
2022-09-27T11:58:55.021Z,6.30
2022-09-27T12:01:50.259Z,6.07
2022-09-27T12:04:43.944Z,5.32
2022-09-27T12:07:45.695Z,5.30
2022-09-27T12:10:17.323Z,5.28
2022-09-27T12:12:50.302Z,11.17
2022-09-27T12:15:19.798Z,5.25
2022-09-27T12:17:56.917Z,5.40
2022-09-27T12:20:28.104Z,7.85
2022-09-27T12:23:00.040Z,5.40
2022-09-27T12:25:53.483Z,5.72
2022-09-27T12:28:55.248Z,6.47
2022-09-27T12:31:29.387Z,6.25
2022-09-27T12:34:06.583Z,6.90
2022-09-27T12:36:38.788Z,3.95
2022-09-27T12:39:18.586Z,4.25
2022-09-27T12:42:01.158Z,4.43
2022-09-27T12:44:42.538Z,4.30
2022-09-27T12:47:17.104Z,5.32
2022-09-27T12:50:01.949Z,5.38
2022-09-27T12:52:35.683Z,4.68
2022-09-27T12:55:05.902Z,3.87
2022-09-27T12:57:57.354Z,8.55
2022-09-27T13:00:32.440Z,8.68
2022-09-27T13:03:19.500Z,5.75
2022-09-27T13:06:31.709Z,6.18
2022-09-27T13:09:11.902Z,5.23
2022-09-27T13:11:56.348Z,6.57
2022-09-27T13:14:26.264Z,7.90
2022-09-27T13:16:53.356Z,8.40
2022-09-27T13:19:44.277Z,5.97
2022-09-27T13:22:28.341Z,6.87
2022-09-27T13:25:02.689Z,6.93
2022-09-27T13:27:51.865Z,4.30
2022-09-27T13:30:45.170Z,4.50
2022-09-27T13:33:16.175Z,3.80
2022-09-27T13:36:06.762Z,3.60
2022-09-27T13:38:35.066Z,5.35
2022-09-27T13:41:21.279Z,4.07
2022-09-27T13:44:16.271Z,5.20
2022-09-27T13:46:55.707Z,4.40
2022-09-27T13:49:43.727Z,4.23
2022-09-27T13:52:37.717Z,5.50
2022-09-27T13:55:36.947Z,3.03
2022-09-27T13:58:12.695Z,3.63
2022-09-27T14:00:44.368Z,4.00
2022-09-27T14:03:11.291Z,4.90
2022-09-27T14:05:46.479Z,12.15
2022-09-27T14:08:26.935Z,5.55
2022-09-27T14:10:55.168Z,5.05
2022-09-27T14:13:25.293Z,10.88
2022-09-27T14:16:04.485Z,5.00
2022-09-27T14:18:37.496Z,4.00
2022-09-27T14:21:28.641Z,4.45
2022-09-27T14:24:32.442Z,4.57
2022-09-27T14:27:17.497Z,3.92
2022-09-27T14:29:53.650Z,4.33
2022-09-27T14:32:28.236Z,4.15
2022-09-27T14:35:34.732Z,5.00
2022-09-27T14:38:26.284Z,3.55
2022-09-27T14:41:01.026Z,4.65
2022-09-27T14:43:29.286Z,4.37
2022-09-27T14:46:07.919Z,5.15
2022-09-27T14:48:37.565Z,9.18
2022-09-27T14:51:29.261Z,10.48
2022-09-27T14:54:00.590Z,15.07
2022-09-27T14:56:34.491Z,7.20
2022-09-27T14:59:05.686Z,7.32
2022-09-27T15:01:35.093Z,6.15
2022-09-27T15:04:07.266Z,4.43
2022-09-27T15:06:37.666Z,4.63
2022-09-27T15:09:07.171Z,4.87
2022-09-27T15:11:34.813Z,4.20
2022-09-27T15:14:03.883Z,2.92
2022-09-27T15:16:31.296Z,3.95
2022-09-27T15:19:03.442Z,2.70
2022-09-27T15:21:36.200Z,3.40
2022-09-27T15:24:03.713Z,3.33
2022-09-27T15:26:42.459Z,3.30
2022-09-27T15:29:24.530Z,3.50
2022-09-27T15:32:06.320Z,4.25
2022-09-27T15:34:35.423Z,3.70
2022-09-27T15:37:09.094Z,3.92
2022-09-27T15:39:38.304Z,3.28
2022-09-27T15:42:17.741Z,4.35
2022-09-27T15:44:47.248Z,4.63
2022-09-27T15:47:42.024Z,3.63
2022-09-27T15:50:14.887Z,3.80
2022-09-27T15:52:52.777Z,3.55
2022-09-27T15:55:25.326Z,5.28
2022-09-27T15:58:08.154Z,5.57
2022-09-27T16:00:35.920Z,4.93
2022-09-27T16:03:03.121Z,5.15
2022-09-27T16:05:30.336Z,5.80
2022-09-27T16:07:58.129Z,7.53
2022-09-27T16:10:38.277Z,12.25
2022-09-27T16:13:05.319Z,19.60
2022-09-27T16:15:32.305Z,9.23
2022-09-27T16:18:00.010Z,12.07
2022-09-27T16:20:27.895Z,24.88
2022-09-27T16:22:55.967Z,20.90
2022-09-27T16:25:23.487Z,24.70
2022-09-27T16:27:50.912Z,21.38
2022-09-27T16:30:18.479Z,23.95
2022-09-27T16:32:47.962Z,12.18
2022-09-27T16:35:17.027Z,14.93
2022-09-27T16:37:44.419Z,25.23
2022-09-27T16:40:13.324Z,18.27
2022-09-27T16:42:42.253Z,21.25
2022-09-27T16:45:11.998Z,15.80
2022-09-27T16:47:41.553Z,11.50
2022-09-27T16:50:29.479Z,10.03
2022-09-27T16:52:56.513Z,11.05
2022-09-27T16:55:24.100Z,14.85
2022-09-27T16:57:50.911Z,12.70
2022-09-27T17:00:18.173Z,9.07
2022-09-27T17:02:48.455Z,13.53
2022-09-27T17:05:16.206Z,18.77
2022-09-27T17:07:43.059Z,18.17
2022-09-27T17:10:09.868Z,19.02
2022-09-27T17:12:36.963Z,14.82
2022-09-27T17:15:04.254Z,16.27
2022-09-27T17:17:30.964Z,8.60
2022-09-27T17:19:57.630Z,7.88
2022-09-27T17:22:24.536Z,9.57
2022-09-27T17:24:51.266Z,9.65
2022-09-27T17:27:18.175Z,18.87
2022-09-27T17:29:45.062Z,12.90
2022-09-27T17:32:13.639Z,8.07
2022-09-27T17:34:43.580Z,8.00
2022-09-27T17:37:13.630Z,20.38
2022-09-27T17:39:40.430Z,16.17
2022-09-27T17:42:07.265Z,21.60
2022-09-27T17:44:34.225Z,29.15
2022-09-27T17:47:19.482Z,20.00
2022-09-27T17:50:12.702Z,31.63
2022-09-27T17:52:39.718Z,14.40
2022-09-27T17:55:06.893Z,11.75
2022-09-27T17:57:33.589Z,8.90
2022-09-27T18:00:00.370Z,13.63
2022-09-27T18:02:27.723Z,20.23
2022-09-27T18:04:54.688Z,12.23
2022-09-27T18:07:21.412Z,11.18
2022-09-27T18:09:49.261Z,16.02
2022-09-27T18:12:17.059Z,21.48
2022-09-27T18:14:43.776Z,30.52
2022-09-27T18:17:12.852Z,24.90
2022-09-27T18:19:39.883Z,25.83
2022-09-27T18:22:07.247Z,21.10
2022-09-27T18:24:34.163Z,29.23
2022-09-27T18:27:01.107Z,44.55
2022-09-27T18:29:28.834Z,36.77
2022-09-27T18:31:55.782Z,60.70
2022-09-27T18:34:23.724Z,43.83
2022-09-27T18:36:50.371Z,15.63
2022-09-27T18:39:20.946Z,9.73
2022-09-27T18:41:51.161Z,7.40
2022-09-27T18:44:18.537Z,13.30
2022-09-27T18:46:45.985Z,10.68
2022-09-27T18:49:14.553Z,7.88
2022-09-27T18:51:44.534Z,8.43
2022-09-27T18:54:20.189Z,5.97
2022-09-27T18:56:48.895Z,8.57
2022-09-27T18:59:17.361Z,10.80
2022-09-27T19:01:47.773Z,9.35
2022-09-27T19:04:21.625Z,8.00
2022-09-27T19:06:51.652Z,12.43
2022-09-27T19:09:18.868Z,8.15
2022-09-27T19:11:45.947Z,8.35
2022-09-27T19:14:17.234Z,8.65
2022-09-27T19:16:47.033Z,9.25
2022-09-27T19:19:15.594Z,10.27
2022-09-27T19:21:42.563Z,13.90
2022-09-27T19:24:09.571Z,8.48
2022-09-27T19:26:36.230Z,10.48
2022-09-27T19:29:03.690Z,9.98
2022-09-27T19:31:30.617Z,7.17
2022-09-27T19:34:00.404Z,4.72
2022-09-27T19:36:28.093Z,8.30
2022-09-27T19:38:58.533Z,5.82
2022-09-27T19:41:26.698Z,5.15
2022-09-27T19:43:54.989Z,5.27
2022-09-27T19:46:23.623Z,6.68
2022-09-27T19:48:51.249Z,8.35
2022-09-27T19:51:23.327Z,15.00
2022-09-27T19:53:51.108Z,11.63
2022-09-27T19:56:18.251Z,23.20
2022-09-27T19:58:45.048Z,11.70
2022-09-27T20:01:20.688Z,33.65
2022-09-27T20:03:49.487Z,26.75
2022-09-27T20:06:18.898Z,27.92
2022-09-27T20:08:47.968Z,28.80
2022-09-27T20:11:18.399Z,24.63
2022-09-27T20:13:45.563Z,41.47
2022-09-27T20:16:20.352Z,41.85
2022-09-27T20:18:50.307Z,34.53
2022-09-27T20:21:18.771Z,27.90
2022-09-27T20:23:49.445Z,60.58
2022-09-27T20:26:18.742Z,29.75
2022-09-27T20:28:47.534Z,36.70
2022-09-27T20:31:19.723Z,36.85
2022-09-27T20:33:49.579Z,23.13
2022-09-27T20:36:24.577Z,21.70
2022-09-27T20:39:01.899Z,20.20
2022-09-27T20:41:35.070Z,25.55
2022-09-27T20:44:07.183Z,21.02
2022-09-27T20:46:35.614Z,9.90
2022-09-27T20:49:09.384Z,9.43
2022-09-27T20:51:39.328Z,25.60
2022-09-27T20:54:08.660Z,13.02
2022-09-27T20:56:44.058Z,13.82
2022-09-27T20:59:21.839Z,23.07
2022-09-27T21:01:50.756Z,29.88
2022-09-27T21:04:19.681Z,33.15
2022-09-27T21:06:47.572Z,32.33
2022-09-27T21:09:19.080Z,21.58
2022-09-27T21:11:51.725Z,14.70
2022-09-27T21:14:18.924Z,16.42
2022-09-27T21:16:45.845Z,11.02
2022-09-27T21:19:13.289Z,11.13
2022-09-27T21:21:40.073Z,12.70
2022-09-27T21:24:07.240Z,8.30
2022-09-27T21:26:34.602Z,9.13
2022-09-27T21:29:06.142Z,10.75
2022-09-27T21:31:33.894Z,12.80
2022-09-27T21:34:03.369Z,23.00
2022-09-27T21:36:35.912Z,23.03
2022-09-27T21:39:05.157Z,18.38
2022-09-27T21:41:31.922Z,18.75
2022-09-27T21:43:58.563Z,36.15
2022-09-27T21:46:27.735Z,75.13
2022-09-27T21:49:00.306Z,34.83
2022-09-27T21:51:33.077Z,37.78
2022-09-27T21:54:01.547Z,30.90
2022-09-27T21:56:31.020Z,51.35
2022-09-27T21:58:58.016Z,72.80
2022-09-27T22:01:26.799Z,42.70
2022-09-27T22:03:57.079Z,37.78
2022-09-27T22:06:30.056Z,56.53
2022-09-27T22:08:58.856Z,54.50
2022-09-27T22:11:28.700Z,34.58
2022-09-27T22:13:55.928Z,47.47
2022-09-27T22:16:23.828Z,66.78
2022-09-27T22:18:52.640Z,53.25
2022-09-27T22:21:28.863Z,44.80
2022-09-27T22:24:05.127Z,20.55
2022-09-27T22:26:35.666Z,7.33
2022-09-27T22:29:03.272Z,10.65
2022-09-27T22:31:30.011Z,9.65
2022-09-27T22:33:59.109Z,12.07
2022-09-27T22:36:27.621Z,15.80
2022-09-27T22:38:55.324Z,10.93
2022-09-27T22:41:22.918Z,12.63
2022-09-27T22:43:49.997Z,17.98
2022-09-27T22:46:17.343Z,10.27
2022-09-27T22:48:44.266Z,19.55
2022-09-27T22:51:11.218Z,14.53
2022-09-27T22:53:38.193Z,43.85
2022-09-27T22:56:08.060Z,39.83
2022-09-27T22:58:37.009Z,27.98
2022-09-27T23:01:14.475Z,31.23
2022-09-27T23:03:41.531Z,38.13
2022-09-27T23:06:08.268Z,28.67
2022-09-27T23:08:36.239Z,16.75
2022-09-27T23:11:12.570Z,17.10
2022-09-27T23:13:41.775Z,10.40
2022-09-27T23:16:14.049Z,10.80
2022-09-27T23:18:41.060Z,8.60
2022-09-27T23:21:11.435Z,17.75
2022-09-27T23:23:41.285Z,10.20
2022-09-27T23:26:10.676Z,8.43
2022-09-27T23:28:37.733Z,10.10
2022-09-27T23:31:08.134Z,10.52
2022-09-27T23:33:37.349Z,7.50
2022-09-27T23:36:05.271Z,9.02
2022-09-27T23:38:32.784Z,22.48
2022-09-27T23:41:00.301Z,17.43
2022-09-27T23:43:27.774Z,13.27
2022-09-27T23:45:57.167Z,9.75
2022-09-27T23:48:27.166Z,7.30
2022-09-27T23:50:54.260Z,10.40
2022-09-27T23:53:21.522Z,7.40
2022-09-27T23:55:58.528Z,7.10
2022-09-27T23:58:25.714Z,6.13
